Weather History for Grand Marais Airport, MN

Change the Weather History Date:

Saturday, April 6, 2013

  Actual Average Record
Temperature  
Mean Temperature 24 °F -  
Max Temperature 28 °F 38 °F 55 °F (2004)
Min Temperature 21 °F 22 °F -2 °F (2003)
Degree Days  
Heating Degree Days 40    
Moisture  
Dew Point 23 °F    
Average Humidity 86    
Maximum Humidity 93    
Minimum Humidity 68    
Precipitation  
Precipitation 0.38 in - - ()
Sea Level Pressure  
Sea Level Pressure 29.75 in    
Wind  
Wind Speed 6 mph (East)    
Max Wind Speed 13 mph    
Max Gust Speed 20 mph    
Visibility 3 miles    
Events Snow    
Averages and records for this station are not official NWS values.
T = Trace of Precipitation, MM = Missing Value Source: NWS Daily Summary

Daily Weather History Graph

Daily Weather History Graph

Search for Another Location

Airport:

Trip Planner

Search our weather history database for the weather conditions in past years. The results will help you decide how hot, cold, wet, or windy it might be!

Date:

Astronomy

Apr. 06, 2013 Rise Set
Actual Time 6:29 AM CDT 7:39 PM CDT
Civil Twilight 5:57 AM CDT 8:10 PM CDT
Nautical Twilight 5:19 AM CDT 8:49 PM CDT
Astronomical Twilight 4:39 AM CDT 9:30 PM CDT
Moon 4:29 AM CDT (4/6) 3:54 PM CDT (4/6)
Length of Visible Light 14h 13m
Length of Day
13h 09m
Waning Crescent, 15% of the Moon is Illuminated
Apr 6
Waning Crescent
Apr 10
New
Apr 18
First Quarter
Apr 25
Full
May 2
Last Quarter

Hourly Weather History & Observations

Time (CDT) Temp. Windchill Dew Point Humidity Pressure Visibility Wind Dir Wind Speed Gust Speed Precip Events Conditions
12:14 AM 21.2 °F 16.4 °F 14.0 °F 74% 30.03 in 10.0 mi East 3.5 mph - N/A   Overcast
12:33 AM 23.0 °F 18.4 °F 14.0 °F 68% 30.03 in 10.0 mi East 3.5 mph - N/A   Overcast
12:53 AM 23.0 °F 18.4 °F 15.8 °F 74% 30.02 in 10.0 mi East 3.5 mph - N/A   Overcast
1:14 AM 23.0 °F 18.4 °F 15.8 °F 74% 30.02 in 10.0 mi East 3.5 mph - N/A   Overcast
1:33 AM 24.8 °F 20.5 °F 15.8 °F 69% 30.02 in 10.0 mi East 3.5 mph - N/A   Overcast
1:53 AM 24.8 °F 20.5 °F 15.8 °F 69% 30.01 in 10.0 mi ESE 3.5 mph - N/A   Mostly Cloudy
2:13 AM 24.8 °F 20.5 °F 15.8 °F 69% 30.01 in 5.0 mi ESE 3.5 mph - N/A   Mostly Cloudy
2:34 AM 24.8 °F 16.9 °F 17.6 °F 74% 29.99 in 5.0 mi East 6.9 mph - N/A Snow Light Snow
2:53 AM 24.8 °F 19.1 °F 19.4 °F 80% 29.98 in 5.0 mi East 4.6 mph - N/A   Overcast
3:14 AM 24.8 °F 20.5 °F 19.4 °F 80% 29.97 in 10.0 mi East 3.5 mph - N/A Snow Light Snow
3:33 AM 24.8 °F 20.5 °F 19.4 °F 80% 29.96 in 5.0 mi East 3.5 mph - N/A Snow Light Snow
3:54 AM 24.8 °F 20.5 °F 19.4 °F 80% 29.95 in 4.0 mi East 3.5 mph - N/A Snow Light Snow
4:13 AM 24.8 °F 19.1 °F 19.4 °F 80% 29.93 in 2.0 mi East 4.6 mph - N/A Snow Light Snow
4:33 AM 24.8 °F 17.9 °F 19.4 °F 80% 29.93 in 1.8 mi East 5.8 mph - N/A Snow Light Snow
4:53 AM 24.8 °F 17.9 °F 19.4 °F 80% 29.92 in 0.8 mi East 5.8 mph - N/A Snow Snow
5:14 AM 24.8 °F 20.5 °F 21.2 °F 86% 29.91 in 1.2 mi East 3.5 mph - N/A Snow Light Snow
5:33 AM 24.8 °F 20.5 °F 21.2 °F 86% 29.90 in 1.8 mi East 3.5 mph - N/A Snow Light Snow
5:53 AM 24.8 °F 17.9 °F 21.2 °F 86% 29.89 in 2.0 mi East 5.8 mph - N/A Snow Light Snow
6:13 AM 24.8 °F 16.9 °F 21.2 °F 86% 29.88 in 2.0 mi East 6.9 mph - N/A Snow Light Snow
6:33 AM 24.8 °F 16.9 °F 21.2 °F 86% 29.87 in 1.8 mi East 6.9 mph - N/A Snow Snow
6:53 AM 26.6 °F 18.2 °F 23.0 °F 86% 29.86 in 2.0 mi East 8.1 mph - N/A Snow Light Snow
7:14 AM 26.6 °F 19.1 °F 23.0 °F 86% 29.86 in 3.0 mi East 6.9 mph - N/A   Overcast
7:33 AM 26.6 °F 16.8 °F 24.8 °F 93% 29.86 in 0.5 mi ESE 10.4 mph - 0.01 in Snow Light Snow
7:53 AM 26.6 °F 16.8 °F 24.8 °F 93% 29.85 in 0.2 mi ESE 10.4 mph 17.3 mph 0.01 in   Overcast
8:13 AM 26.6 °F 15.7 °F 24.8 °F 93% 29.84 in 0.5 mi East 12.7 mph - 0.01 in   Overcast
8:33 AM 26.6 °F 17.5 °F 24.8 °F 93% 29.82 in 0.5 mi ESE 9.2 mph - 0.01 in   Overcast
8:53 AM 26.6 °F 16.2 °F 24.8 °F 93% 29.81 in 0.2 mi ESE 11.5 mph 19.6 mph 0.02 in   Overcast
9:14 AM 26.6 °F 16.2 °F 24.8 °F 93% 29.80 in 0.2 mi ESE 11.5 mph 16.1 mph 0.01 in   Overcast
9:33 AM 26.6 °F 18.2 °F 24.8 °F 93% 29.79 in 0.2 mi ESE 8.1 mph - 0.01 in   Overcast
9:53 AM 26.6 °F 17.5 °F 24.8 °F 93% 29.78 in 0.2 mi ESE 9.2 mph - 0.01 in   Overcast
10:14 AM 26.6 °F 17.5 °F 24.8 °F 93% 29.77 in 0.2 mi ESE 9.2 mph - 0.01 in Snow Light Snow
10:33 AM 28.4 °F 20.4 °F 24.8 °F 86% 29.76 in 0.2 mi ESE 8.1 mph - 0.01 in Snow Light Snow
10:54 AM 28.4 °F 21.2 °F 24.8 °F 86% 29.76 in 0.5 mi SE 6.9 mph - 0.01 in Snow Light Snow
11:13 AM 28.4 °F 20.4 °F 24.8 °F 86% 29.75 in 1.2 mi SE 8.1 mph - N/A Snow Light Snow
11:33 AM 26.6 °F 16.2 °F 24.8 °F 93% 29.73 in 1.8 mi ESE 11.5 mph - N/A Snow Light Snow
11:53 AM 26.6 °F 16.8 °F 24.8 °F 93% 29.73 in 0.8 mi ESE 10.4 mph 16.1 mph N/A Snow Light Snow
12:14 PM 26.6 °F 18.2 °F 24.8 °F 93% 29.71 in 0.5 mi ESE 8.1 mph - N/A Snow Snow
12:34 PM 26.6 °F 16.8 °F 24.8 °F 93% 29.69 in 0.2 mi ESE 10.4 mph 16.1 mph 0.01 in Snow Snow
12:54 PM 26.6 °F 16.8 °F 24.8 °F 93% 29.69 in 0.2 mi ESE 10.4 mph 16.1 mph 0.02 in Snow Snow
1:13 PM 26.6 °F 16.8 °F 24.8 °F 93% 29.67 in 0.2 mi ESE 10.4 mph - 0.01 in Snow Snow
1:33 PM 26.6 °F 17.5 °F 24.8 °F 93% 29.66 in 0.8 mi ESE 9.2 mph - 0.04 in Snow Light Snow
1:53 PM 28.4 °F 20.4 °F 24.8 °F 86% 29.65 in 0.2 mi ESE 8.1 mph - 0.07 in Snow Snow
2:13 PM 28.4 °F 23.3 °F 24.8 °F 86% 29.65 in 0.2 mi East 4.6 mph - 0.02 in Snow Snow
2:34 PM 26.6 °F 20.0 °F 24.8 °F 93% 29.65 in 0.8 mi East 5.8 mph - 0.03 in Snow Light Snow
2:53 PM 26.6 °F 21.2 °F 24.8 °F 93% 29.64 in 0.2 mi East 4.6 mph - 0.04 in Snow Snow
3:13 PM 26.6 °F 21.2 °F 24.8 °F 93% 29.63 in 0.8 mi East 4.6 mph - 0.01 in Snow Snow
3:33 PM 28.4 °F 21.2 °F 24.8 °F 86% 29.61 in 0.5 mi East 6.9 mph - 0.03 in Snow Snow
3:54 PM 28.4 °F 22.2 °F 24.8 °F 86% 29.60 in 0.2 mi East 5.8 mph - 0.05 in Snow Snow
4:13 PM 28.4 °F 24.6 °F 24.8 °F 86% 29.60 in 0.5 mi East 3.5 mph - 0.01 in Snow Light Snow
4:34 PM 28.4 °F 22.2 °F 24.8 °F 86% 29.60 in 0.8 mi East 5.8 mph - 0.03 in Snow Light Snow
4:53 PM 28.4 °F 23.3 °F 24.8 °F 86% 29.60 in 0.8 mi East 4.6 mph - 0.04 in   Overcast
5:13 PM 28.4 °F 23.3 °F 24.8 °F 86% 29.60 in 0.5 mi ENE 4.6 mph - 0.01 in Snow Snow
5:34 PM 28.4 °F 23.3 °F 24.8 °F 86% 29.60 in 0.5 mi NE 4.6 mph - 0.02 in Snow Snow
5:53 PM 28.4 °F 22.2 °F 24.8 °F 86% 29.60 in 1.0 mi NNE 5.8 mph - 0.05 in Snow Light Snow
6:13 PM 28.4 °F 23.3 °F 24.8 °F 86% 29.60 in 1.5 mi NNE 4.6 mph - 0.02 in Snow Light Snow
6:33 PM 28.4 °F 23.3 °F 24.8 °F 86% 29.60 in 3.0 mi North 4.6 mph - 0.03 in Snow Light Snow
6:54 PM 28.4 °F 24.6 °F 24.8 °F 86% 29.60 in 2.5 mi North 3.5 mph - 0.04 in Snow Light Snow
7:13 PM 28.4 °F 24.6 °F 24.8 °F 86% 29.60 in 2.5 mi North 3.5 mph - N/A Snow Light Snow
7:33 PM 28.4 °F - 24.8 °F 86% 29.60 in 3.0 mi Calm Calm - 0.01 in   Overcast
7:54 PM 28.4 °F 23.3 °F 24.8 °F 86% 29.59 in 4.0 mi NNW 4.6 mph - 0.02 in Snow Light Snow
8:13 PM 28.4 °F 21.2 °F 24.8 °F 86% 29.59 in 5.0 mi NNW 6.9 mph - N/A   Overcast
8:33 PM 28.4 °F 21.2 °F 24.8 °F 86% 29.59 in 5.0 mi NNW 6.9 mph - N/A Snow Light Snow
8:54 PM 28.4 °F 22.2 °F 24.8 °F 86% 29.59 in 7.0 mi NNW 5.8 mph - N/A   Mostly Cloudy
9:14 PM 28.4 °F 21.2 °F 24.8 °F 86% 29.59 in 7.0 mi NNW 6.9 mph - N/A Snow Light Snow
9:33 PM 28.4 °F 19.7 °F 24.8 °F 86% 29.59 in 7.0 mi NNW 9.2 mph - N/A   Overcast
9:53 PM 28.4 °F 19.7 °F 24.8 °F 86% 29.59 in 10.0 mi NNW 9.2 mph 16.1 mph N/A   Mostly Cloudy
10:14 PM 28.4 °F 20.4 °F 24.8 °F 86% 29.59 in 10.0 mi NNW 8.1 mph - N/A   Overcast
10:33 PM 26.6 °F 17.5 °F 24.8 °F 93% 29.59 in 10.0 mi NNW 9.2 mph - N/A   Mostly Cloudy
10:54 PM 26.6 °F 16.8 °F 23.0 °F 86% 29.59 in 10.0 mi NNW 10.4 mph 16.1 mph N/A   Mostly Cloudy
11:13 PM 26.6 °F 16.8 °F 23.0 °F 86% 29.60 in 10.0 mi NNW 10.4 mph - N/A   Overcast
11:33 PM 26.6 °F 16.2 °F 23.0 °F 86% 29.60 in 10.0 mi NNW 11.5 mph 16.1 mph N/A   Overcast
11:53 PM 26.6 °F 16.8 °F 23.0 °F 86% 29.60 in 10.0 mi NNW 10.4 mph - N/A   Overcast